Terminal Aerodrome Forecast
Issued by NWS

Home | Current Version | Previous Version | Text Only | Print | Product List | Glossary On
Versions: 1 2 3 4 5 6 7 8 9 10 11 12 13 14 15
000
FTUS45 KLKN 222321
TAFWMC
TAF
KWMC 222321Z 2300/2324 24013G23KT P6SM VCSH BKN050
     FM230200 25008KT P6SM VCSH BKN050
     FM231900 28012G22KT P6SM VCSH BKN050
      AMD NOT SKED=

USA.gov is the U.S. government's official web portal to all federal, state and local government web resources and services.